Time;durP1;ratioP1;P1;durP2;ratioP2;P2;SDS_P1;SDS_P2;PMS_P1;PMS_P2;Temp;Humidity;BMP_temperature;BMP_pressure;BME280_temperature;BME280_humidity;BME280_pressure;Samples;Min_cycle;Max_cycle;Signal;HPM_P1;HPM_P2
2022/11/23 00:02:06;0.00;0.00;0.62;0.00;0.00;0.62;2.10;1.20;;;22.20;23.50;;;;;;2233197;62;20394;-61
2022/11/23 00:04:50;0.00;0.00;0.62;0.00;0.00;0.62;2.20;1.20;;;22.20;23.50;;;;;;2235429;62;20922;-62
2022/11/23 00:07:35;0.00;0.00;0.62;0.00;0.00;0.62;2.17;1.30;;;22.20;23.40;;;;;;2236178;62;20369;-62
2022/11/23 00:10:20;0.00;0.00;0.62;0.00;0.00;0.62;1.90;1.10;;;22.10;23.40;;;;;;2235825;62;20454;-62
2022/11/23 00:13:05;0.00;0.00;0.62;0.00;0.00;0.62;2.60;1.70;;;22.10;23.40;;;;;;2236026;62;20358;-61
2022/11/23 00:15:49;0.00;0.00;0.62;0.00;0.00;0.62;2.27;1.30;;;22.10;23.40;;;;;;2236081;62;20372;-62
2022/11/23 00:18:35;0.00;0.00;0.62;0.00;0.00;0.62;2.10;1.30;;;22.10;23.30;;;;;;2238149;61;20378;-62
2022/11/23 00:21:21;0.00;0.00;0.62;0.00;0.00;0.62;2.70;1.43;;;22.10;23.30;;;;;;2239625;61;20389;-62
2022/11/23 00:24:06;0.00;0.00;0.62;0.00;0.00;0.62;1.90;1.10;;;22.00;23.30;;;;;;2240372;61;20373;-62
2022/11/23 00:26:51;0.00;0.00;0.62;0.00;0.00;0.62;3.80;1.83;;;22.00;23.30;;;;;;2239698;61;20365;-61
2022/11/23 00:29:35;0.00;0.00;0.62;0.00;0.00;0.62;2.83;1.20;;;22.00;23.30;;;;;;2240010;61;20397;-61
2022/11/23 00:32:20;0.00;0.00;0.62;0.00;0.00;0.62;2.80;1.57;;;22.00;23.30;;;;;;2239736;61;20470;-62
2022/11/23 00:35:07;0.00;0.00;0.62;0.00;0.00;0.62;2.17;1.63;;;22.00;23.30;;;;;;2239806;61;20361;-61
2022/11/23 00:37:52;0.00;0.00;0.62;0.00;0.00;0.62;2.70;1.70;;;22.00;23.30;;;;;;2239927;61;20374;-62
2022/11/23 00:40:36;0.00;0.00;0.62;0.00;0.00;0.62;3.20;1.80;;;21.90;23.20;;;;;;2236669;61;20838;-62
2022/11/23 00:43:21;0.00;0.00;0.62;0.00;0.00;0.62;2.67;1.50;;;21.90;23.20;;;;;;2236761;61;20365;-62
2022/11/23 00:46:09;0.00;0.00;0.62;0.00;0.00;0.62;3.00;1.60;;;21.80;23.20;;;;;;2239945;61;20378;-62
2022/11/23 00:48:56;0.00;0.00;0.62;0.00;0.00;0.62;2.40;1.50;;;21.80;23.20;;;;;;2239832;61;20988;-62
2022/11/23 00:51:44;0.00;0.00;0.62;0.00;0.00;0.62;2.40;1.63;;;21.80;23.20;;;;;;2236804;61;20803;-62
2022/11/23 00:54:31;0.00;0.00;0.62;0.00;0.00;0.62;4.70;1.60;;;21.70;23.10;;;;;;2236975;61;20385;-62
2022/11/23 00:57:16;0.00;0.00;0.62;0.00;0.00;0.62;2.20;1.87;;;21.70;23.10;;;;;;2237095;61;20425;-62
2022/11/23 01:00:04;0.00;0.00;0.62;0.00;0.00;0.62;3.03;1.40;;;21.70;23.20;;;;;;2237237;61;20362;-62
2022/11/23 01:02:49;0.00;0.00;0.62;0.00;0.00;0.62;2.90;1.40;;;21.70;23.20;;;;;;2240465;61;20838;-62
2022/11/23 01:05:36;0.00;0.00;0.62;0.00;0.00;0.62;2.60;1.87;;;21.70;23.20;;;;;;2240085;61;20364;-62
2022/11/23 01:08:22;0.00;0.00;0.62;0.00;0.00;0.62;3.00;1.70;;;21.60;23.70;;;;;;2240768;61;20369;-61
2022/11/23 01:11:10;0.00;0.00;0.62;0.00;0.00;0.62;3.93;1.93;;;21.60;23.20;;;;;;2237211;61;20433;-61
2022/11/23 01:13:55;0.00;0.00;0.62;0.00;0.00;0.62;2.50;1.63;;;21.60;23.30;;;;;;2240268;61;20439;-62
2022/11/23 01:16:41;0.00;0.00;0.62;0.00;0.00;0.62;3.00;1.47;;;21.60;23.30;;;;;;2239794;61;20366;-62
2022/11/23 01:19:29;0.00;0.00;0.62;0.00;0.00;0.62;4.00;1.73;;;21.50;23.30;;;;;;2235963;62;20382;-62
2022/11/23 01:22:14;0.00;0.00;0.62;0.00;0.00;0.62;2.00;1.37;;;21.50;23.20;;;;;;2232590;62;20438;-61
2022/11/23 01:25:01;0.00;0.00;0.62;0.00;0.00;0.62;2.43;1.67;;;21.50;23.80;;;;;;2232827;62;20418;-62
2022/11/23 01:27:47;0.00;0.00;0.62;0.00;0.00;0.62;3.23;1.77;;;21.40;23.20;;;;;;2235757;62;20902;-61
2022/11/23 01:30:33;0.00;0.00;0.62;0.00;0.00;0.62;2.97;1.90;;;21.40;23.20;;;;;;2235747;62;20451;-62
2022/11/23 01:33:18;0.00;0.00;0.62;0.00;0.00;0.62;2.20;1.30;;;21.40;23.30;;;;;;2235709;62;20359;-62
2022/11/23 01:36:13;0.00;0.00;0.62;0.00;0.00;0.62;2.27;1.30;;;21.40;23.30;;;;;;2232650;62;20394;-62
2022/11/23 01:38:59;0.00;0.00;0.62;0.00;0.00;0.62;2.70;1.77;;;21.30;23.30;;;;;;2235825;62;20771;-62
2022/11/23 01:41:45;0.00;0.00;0.62;0.00;0.00;0.62;3.80;1.90;;;21.30;23.80;;;;;;2235456;62;20854;-62
2022/11/23 01:44:33;0.00;0.00;0.62;0.00;0.00;0.62;2.67;1.50;;;21.30;23.30;;;;;;2235667;62;20370;-62
2022/11/23 01:47:18;0.00;0.00;0.62;0.00;0.00;0.62;3.23;2.03;;;21.20;23.20;;;;;;2235822;62;20381;-62
2022/11/23 01:50:03;0.00;0.00;0.62;0.00;0.00;0.62;2.73;1.37;;;21.30;23.30;;;;;;2235526;62;20425;-62
2022/11/23 01:52:49;0.00;0.00;0.62;0.00;0.00;0.62;2.20;1.40;;;21.20;23.30;;;;;;2236281;62;20414;-62
2022/11/23 01:55:35;0.00;0.00;0.62;0.00;0.00;0.62;2.40;1.40;;;21.20;23.30;;;;;;2235706;62;21041;-62
2022/11/23 01:58:26;0.00;0.00;0.62;0.00;0.00;0.62;2.47;1.50;;;21.20;23.30;;;;;;2235380;62;20820;-62
2022/11/23 02:01:12;0.00;0.00;0.62;0.00;0.00;0.62;2.37;2.00;;;21.20;23.40;;;;;;2235431;62;20394;-62
2022/11/23 02:03:59;0.00;0.00;0.62;0.00;0.00;0.62;2.00;1.37;;;21.10;23.30;;;;;;2235232;62;20374;-62
2022/11/23 02:06:46;0.00;0.00;0.62;0.00;0.00;0.62;2.50;1.33;;;21.10;23.40;;;;;;2235727;62;20907;-62
2022/11/23 02:09:33;0.00;0.00;0.62;0.00;0.00;0.62;2.50;1.40;;;21.10;23.40;;;;;;2235134;62;20442;-62
2022/11/23 02:12:18;0.00;0.00;0.62;0.00;0.00;0.62;1.73;1.13;;;21.10;23.40;;;;;;2235249;62;20386;-62
2022/11/23 02:15:05;0.00;0.00;0.62;0.00;0.00;0.62;2.03;1.30;;;21.00;23.40;;;;;;2236280;62;20363;-62
2022/11/23 02:17:51;0.00;0.00;0.62;0.00;0.00;0.62;2.60;1.47;;;21.00;23.40;;;;;;2236353;61;20868;-62
2022/11/23 02:20:36;0.00;0.00;0.62;0.00;0.00;0.62;2.50;1.40;;;21.00;23.40;;;;;;2239692;61;20922;-61
2022/11/23 02:23:32;0.00;0.00;0.62;0.00;0.00;0.62;3.07;1.30;;;21.00;23.40;;;;;;2239536;61;20760;-62
2022/11/23 02:26:22;0.00;0.00;0.62;0.00;0.00;0.62;2.23;1.30;;;21.00;24.00;;;;;;2239556;61;20462;-62
2022/11/23 02:29:13;0.00;0.00;0.62;0.00;0.00;0.62;2.53;1.60;;;21.00;23.50;;;;;;2239941;61;20405;-61
2022/11/23 02:31:58;0.00;0.00;0.62;0.00;0.00;0.62;4.20;1.20;;;21.00;23.50;;;;;;2238977;61;20907;-62
2022/11/23 02:34:42;0.00;0.00;0.62;0.00;0.00;0.62;3.30;1.90;;;21.00;23.50;;;;;;2239973;61;20369;-63
2022/11/23 02:37:27;0.00;0.00;0.62;0.00;0.00;0.62;3.10;1.60;;;21.00;23.50;;;;;;2240286;61;20369;-61
2022/11/23 02:40:24;0.00;0.00;0.62;0.00;0.00;0.62;3.07;1.63;;;21.00;23.50;;;;;;2238889;61;20371;-62
2022/11/23 02:43:11;0.00;0.00;0.62;0.00;0.00;0.62;2.30;1.50;;;21.00;23.60;;;;;;2239496;61;20382;-63
2022/11/23 02:45:58;0.00;0.00;0.62;0.00;0.00;0.62;2.00;1.50;;;21.00;23.60;;;;;;2239819;61;21035;-62
2022/11/23 02:48:43;0.00;0.00;0.62;0.00;0.00;0.62;2.43;1.40;;;21.00;23.60;;;;;;2239676;61;20904;-62
2022/11/23 02:51:27;0.00;0.00;0.62;0.00;0.00;0.62;2.73;1.73;;;21.00;23.60;;;;;;2240456;61;20409;-62
2022/11/23 02:54:12;0.00;0.00;0.62;0.00;0.00;0.62;2.10;1.30;;;21.00;23.60;;;;;;2240112;61;20369;-62
2022/11/23 02:56:57;0.00;0.00;0.62;0.00;0.00;0.62;2.17;1.30;;;21.00;23.60;;;;;;2237058;61;20434;-62
2022/11/23 02:59:43;0.00;0.00;0.62;0.00;0.00;0.62;1.80;1.40;;;21.00;23.60;;;;;;2237400;61;20408;-61
2022/11/23 03:02:27;0.00;0.00;0.62;0.00;0.00;0.62;1.80;1.10;;;21.00;23.70;;;;;;2239599;61;20393;-62
2022/11/23 03:05:12;0.00;0.00;0.62;0.00;0.00;0.62;3.33;1.63;;;21.00;23.60;;;;;;2237293;61;20531;-62
2022/11/23 03:07:57;0.00;0.00;0.62;0.00;0.00;0.62;2.67;1.70;;;21.00;23.60;;;;;;2240250;61;20810;-61
2022/11/23 03:10:42;0.00;0.00;0.62;0.00;0.00;0.62;2.10;1.37;;;21.00;23.60;;;;;;2236810;61;20412;-61
2022/11/23 03:13:27;0.00;0.00;0.62;0.00;0.00;0.62;2.23;1.30;;;21.00;23.60;;;;;;2237145;61;20417;-61
2022/11/23 03:16:13;0.00;0.00;0.62;0.00;0.00;0.62;3.03;1.40;;;21.00;23.70;;;;;;2237022;61;20937;-61
2022/11/23 03:18:58;0.00;0.00;0.62;0.00;0.00;0.62;2.37;1.47;;;21.00;23.60;;;;;;2235959;62;20378;-61
2022/11/23 03:21:43;0.00;0.00;0.62;0.00;0.00;0.62;2.10;1.43;;;21.00;23.60;;;;;;2236289;62;20462;-61
2022/11/23 03:24:28;0.00;0.00;0.62;0.00;0.00;0.62;2.23;1.37;;;21.00;23.70;;;;;;2235734;62;20425;-62
2022/11/23 03:27:14;0.00;0.00;0.62;0.00;0.00;0.62;2.10;1.20;;;21.00;23.70;;;;;;2233197;62;20386;-60
2022/11/23 03:30:00;0.00;0.00;0.62;0.00;0.00;0.62;2.13;1.10;;;21.00;23.70;;;;;;2232911;62;20512;-60
2022/11/23 03:32:49;0.00;0.00;0.62;0.00;0.00;0.62;2.20;1.20;;;21.00;23.70;;;;;;2233058;62;20454;-60
2022/11/23 03:35:34;0.00;0.00;0.62;0.00;0.00;0.62;2.03;1.20;;;20.90;23.70;;;;;;2233093;62;20862;-61
2022/11/23 03:38:33;0.00;0.00;0.62;0.00;0.00;0.62;2.20;1.30;;;21.00;23.70;;;;;;2232817;62;20399;-61
2022/11/23 03:41:19;0.00;0.00;0.62;0.00;0.00;0.62;2.80;1.60;;;20.90;23.60;;;;;;2232920;62;20402;-62
2022/11/23 03:44:09;0.00;0.00;0.62;0.00;0.00;0.62;2.13;1.20;;;20.90;23.70;;;;;;2233376;62;20458;-62
2022/11/23 03:46:54;0.00;0.00;0.62;0.00;0.00;0.62;2.90;1.70;;;20.90;23.70;;;;;;2232514;62;20370;-61
2022/11/23 03:49:40;0.00;0.00;0.62;0.00;0.00;0.62;1.83;1.00;;;20.90;23.70;;;;;;2232915;62;20410;-62
2022/11/23 03:52:26;0.00;0.00;0.62;0.00;0.00;0.62;3.70;1.70;;;20.90;23.70;;;;;;2233061;62;20407;-62
2022/11/23 03:55:11;0.00;0.00;0.62;0.00;0.00;0.62;2.30;1.30;;;20.90;23.70;;;;;;2233001;62;20410;-62
2022/11/23 03:57:58;0.00;0.00;0.62;0.00;0.00;0.62;1.90;1.10;;;20.90;23.70;;;;;;2232821;62;20894;-62
2022/11/23 04:00:45;0.00;0.00;0.62;0.00;0.00;0.62;2.17;1.33;;;20.90;23.70;;;;;;2236059;62;20406;-62
2022/11/23 04:03:33;0.00;0.00;0.62;0.00;0.00;0.62;4.87;1.50;;;20.90;23.80;;;;;;2230376;62;20366;-62
2022/11/23 04:06:38;0.00;0.00;0.62;0.00;0.00;0.62;3.00;1.40;;;20.90;23.80;;;;;;2233421;62;20409;-62
2022/11/23 04:09:32;0.00;0.00;0.62;0.00;0.00;0.62;3.50;1.50;;;20.80;23.70;;;;;;2232531;62;20402;-62
2022/11/23 04:12:39;0.00;0.00;0.62;0.00;0.00;0.62;2.77;1.30;;;20.80;23.70;;;;;;2236019;62;20422;-62
2022/11/23 04:15:25;0.00;0.00;0.62;0.00;0.00;0.62;2.00;1.20;;;20.90;23.80;;;;;;2232876;62;20375;-62
2022/11/23 04:18:10;0.00;0.00;0.62;0.00;0.00;0.62;2.43;1.40;;;20.90;23.80;;;;;;2237465;61;20450;-62
2022/11/23 04:20:57;0.00;0.00;0.62;0.00;0.00;0.62;2.77;1.30;;;20.80;24.30;;;;;;2237610;61;20393;-62
2022/11/23 04:23:43;0.00;0.00;0.62;0.00;0.00;0.62;1.80;1.00;;;20.80;23.80;;;;;;2234089;61;20373;-62
2022/11/23 04:26:31;0.00;0.00;0.62;0.00;0.00;0.62;2.40;1.20;;;20.80;23.80;;;;;;2236740;61;20937;-62
2022/11/23 04:29:16;0.00;0.00;0.62;0.00;0.00;0.62;2.67;1.27;;;20.80;23.80;;;;;;2237222;61;20368;-62
2022/11/23 04:32:06;0.00;0.00;0.62;0.00;0.00;0.62;1.80;1.30;;;20.80;23.80;;;;;;2236360;61;20381;-62
2022/11/23 04:34:51;0.00;0.00;0.62;0.00;0.00;0.62;4.93;1.33;;;20.80;23.80;;;;;;2236894;61;20401;-62
2022/11/23 04:37:36;0.00;0.00;0.62;0.00;0.00;0.62;2.40;1.20;;;20.80;23.80;;;;;;2239801;61;20410;-62
2022/11/23 04:40:22;0.00;0.00;0.62;0.00;0.00;0.62;3.30;1.20;;;20.80;23.90;;;;;;2236587;61;20366;-62
2022/11/23 04:43:15;0.00;0.00;0.62;0.00;0.00;0.62;2.70;1.37;;;20.80;23.90;;;;;;2240514;61;20385;-62
2022/11/23 04:46:01;0.00;0.00;0.62;0.00;0.00;0.62;2.53;1.43;;;20.70;23.80;;;;;;2236310;61;20377;-62
2022/11/23 04:48:48;0.00;0.00;0.62;0.00;0.00;0.62;2.37;1.60;;;20.70;23.80;;;;;;2237158;61;20366;-62
2022/11/23 04:51:34;0.00;0.00;0.62;0.00;0.00;0.62;1.83;1.20;;;20.70;23.80;;;;;;2236813;61;20411;-62
2022/11/23 04:54:20;0.00;0.00;0.62;0.00;0.00;0.62;1.70;1.10;;;20.70;23.80;;;;;;2236536;61;20425;-61
2022/11/23 04:57:12;0.00;0.00;0.62;0.00;0.00;0.62;3.33;1.40;;;20.70;23.90;;;;;;2236931;61;20365;-62
2022/11/23 04:59:58;0.00;0.00;0.62;0.00;0.00;0.62;2.80;1.60;;;20.70;23.90;;;;;;2236985;61;20381;-62
2022/11/23 05:02:44;0.00;0.00;0.62;0.00;0.00;0.62;1.80;1.07;;;20.70;23.90;;;;;;2237251;61;20461;-62
2022/11/23 05:05:38;0.00;0.00;0.62;0.00;0.00;0.62;2.03;1.20;;;20.70;23.90;;;;;;2237700;61;20365;-62
2022/11/23 05:08:23;0.00;0.00;0.62;0.00;0.00;0.62;2.13;1.10;;;20.70;23.90;;;;;;2236417;61;20429;-62
2022/11/23 05:11:14;0.00;0.00;0.62;0.00;0.00;0.62;2.40;1.20;;;20.70;23.90;;;;;;2237206;61;20385;-62
2022/11/23 05:14:02;0.00;0.00;0.62;0.00;0.00;0.62;4.87;1.70;;;20.70;23.90;;;;;;2237450;61;20369;-61
2022/11/23 05:16:48;0.00;0.00;0.62;0.00;0.00;0.62;4.00;1.87;;;20.70;23.90;;;;;;2236720;61;20369;-63
2022/11/23 05:19:33;0.00;0.00;0.62;0.00;0.00;0.62;2.70;1.27;;;20.70;23.90;;;;;;2233010;62;20429;-62
2022/11/23 05:22:18;0.00;0.00;0.62;0.00;0.00;0.62;1.80;1.53;;;20.60;23.80;;;;;;2232491;62;20547;-62
2022/11/23 05:25:04;0.00;0.00;0.62;0.00;0.00;0.62;2.30;1.27;;;20.60;23.80;;;;;;2229772;62;20425;-62
2022/11/23 05:27:51;0.00;0.00;0.62;0.00;0.00;0.62;2.07;1.20;;;20.70;23.90;;;;;;2233289;62;20362;-64
2022/11/23 05:30:37;0.00;0.00;0.62;0.00;0.00;0.62;3.50;1.20;;;20.60;23.90;;;;;;2232318;62;20382;-63
2022/11/23 05:33:23;0.00;0.00;0.62;0.00;0.00;0.62;1.63;1.00;;;20.60;23.90;;;;;;2232642;62;20370;-63
2022/11/23 05:36:12;0.00;0.00;0.62;0.00;0.00;0.62;2.00;1.10;;;20.70;24.00;;;;;;2232795;62;20944;-62
2022/11/23 05:38:58;0.00;0.00;0.62;0.00;0.00;0.62;1.47;0.90;;;20.70;24.00;;;;;;2235736;62;20370;-65
2022/11/23 05:41:48;0.00;0.00;0.62;0.00;0.00;0.62;1.87;1.20;;;20.70;24.00;;;;;;2232664;62;20806;-62
2022/11/23 05:44:47;0.00;0.00;0.62;0.00;0.00;0.62;1.43;0.80;;;20.70;24.00;;;;;;2230375;62;20362;-60
2022/11/23 05:47:41;0.00;0.00;0.62;0.00;0.00;0.62;1.60;0.90;;;20.70;23.90;;;;;;2232824;62;20374;-63
2022/11/23 05:50:35;0.00;0.00;0.62;0.00;0.00;0.62;1.50;0.90;;;20.80;24.00;;;;;;2232626;62;20378;-61
2022/11/23 05:53:42;0.00;0.00;0.62;0.00;0.00;0.62;2.37;0.90;;;20.80;24.00;;;;;;2235389;62;20362;-61
2022/11/23 05:56:35;0.00;0.00;0.62;0.00;0.00;0.62;1.90;1.23;;;20.80;24.00;;;;;;2232746;62;20374;-64
2022/11/23 05:59:27;0.00;0.00;0.62;0.00;0.00;0.62;4.07;1.10;;;20.80;24.00;;;;;;2232659;62;20374;-65
2022/11/23 06:02:18;0.00;0.00;0.62;0.00;0.00;0.62;1.57;0.87;;;20.80;24.00;;;;;;2234688;61;21287;-62
2022/11/23 06:05:05;0.00;0.00;0.62;0.00;0.00;0.62;1.50;0.70;;;20.90;24.10;;;;;;2235147;61;20861;-62
2022/11/23 06:07:58;0.00;0.00;0.62;0.00;0.00;0.62;1.77;0.90;;;20.90;24.10;;;;;;2236425;61;20506;-64
2022/11/23 06:10:45;0.00;0.00;0.62;0.00;0.00;0.62;1.70;0.80;;;20.90;24.10;;;;;;2233887;61;20385;-63
2022/11/23 06:13:30;0.00;0.00;0.62;0.00;0.00;0.62;2.17;0.80;;;20.90;24.10;;;;;;2233205;62;20422;-62
2022/11/23 06:16:16;0.00;0.00;0.62;0.00;0.00;0.62;1.60;0.90;;;21.00;24.10;;;;;;2232626;62;20363;-63
2022/11/23 06:19:15;0.00;0.00;0.62;0.00;0.00;0.62;2.07;1.40;;;21.00;24.10;;;;;;2232603;62;20440;-66
2022/11/23 06:22:01;0.00;0.00;0.62;0.00;0.00;0.62;1.67;0.83;;;21.00;24.10;;;;;;2235182;61;20421;-61
2022/11/23 06:24:49;0.00;0.00;0.62;0.00;0.00;0.62;1.37;0.77;;;21.00;24.10;;;;;;2237141;61;20369;-59
2022/11/23 06:27:54;0.00;0.00;0.62;0.00;0.00;0.62;1.77;1.00;;;21.00;24.60;;;;;;2235030;61;20761;-64
2022/11/23 06:30:42;0.00;0.00;0.62;0.00;0.00;0.62;1.60;1.00;;;21.10;24.20;;;;;;2236015;61;20369;-67
2022/11/23 06:33:28;0.00;0.00;0.62;0.00;0.00;0.62;1.50;0.97;;;21.10;24.10;;;;;;2233455;62;20405;-61
2022/11/23 06:36:14;0.00;0.00;0.62;0.00;0.00;0.62;2.77;1.10;;;21.10;24.10;;;;;;2233029;62;20449;-62
2022/11/23 06:39:06;0.00;0.00;0.62;0.00;0.00;0.62;1.80;0.80;;;21.10;24.10;;;;;;2233076;62;20370;-61
2022/11/23 06:41:52;0.00;0.00;0.62;0.00;0.00;0.62;1.80;0.77;;;21.10;24.10;;;;;;2233381;62;20478;-63
2022/11/23 06:44:37;0.00;0.00;0.62;0.00;0.00;0.62;1.77;1.00;;;21.20;24.20;;;;;;2230210;62;20409;-63
2022/11/23 06:47:22;0.00;0.00;0.62;0.00;0.00;0.62;1.30;0.70;;;21.20;24.20;;;;;;2236380;62;20417;-61
2022/11/23 06:50:08;0.00;0.00;0.62;0.00;0.00;0.62;1.87;1.10;;;21.20;24.20;;;;;;2230578;62;20370;-64
2022/11/23 06:52:55;0.00;0.00;0.62;0.00;0.00;0.62;1.30;0.70;;;21.20;24.20;;;;;;2232992;62;20450;-64
2022/11/23 06:55:48;0.00;0.00;0.62;0.00;0.00;0.62;2.00;1.10;;;21.20;24.20;;;;;;2233410;62;20927;-63
2022/11/23 06:58:36;0.00;0.00;0.62;0.00;0.00;0.62;1.33;0.70;;;21.30;24.30;;;;;;2236166;62;20770;-63
2022/11/23 07:01:24;0.00;0.00;0.62;0.00;0.00;0.62;3.03;1.07;;;21.30;24.30;;;;;;2232793;62;20398;-64
2022/11/23 07:04:14;0.00;0.00;0.62;0.00;0.00;0.62;1.83;0.80;;;21.30;24.30;;;;;;2236756;62;20510;-64
2022/11/23 07:07:06;0.00;0.00;0.62;0.00;0.00;0.62;1.70;0.90;;;21.30;24.80;;;;;;2233061;62;20418;-62
2022/11/23 07:09:59;0.00;0.00;0.62;0.00;0.00;0.62;1.50;0.80;;;21.30;24.20;;;;;;2233008;62;20438;-60
2022/11/23 07:12:52;0.00;0.00;0.62;0.00;0.00;0.62;1.73;0.90;;;21.40;24.30;;;;;;2233298;62;20775;-62
2022/11/23 07:15:39;0.00;0.00;0.62;0.00;0.00;0.62;1.63;0.80;;;21.40;24.20;;;;;;2233132;62;20366;-62
2022/11/23 07:18:24;0.00;0.00;0.62;0.00;0.00;0.62;1.73;0.87;;;21.40;24.20;;;;;;2236521;62;20362;-59
2022/11/23 07:21:14;0.00;0.00;0.62;0.00;0.00;0.62;1.63;0.90;;;21.40;24.20;;;;;;2233093;62;21044;-62
2022/11/23 07:23:59;0.00;0.00;0.62;0.00;0.00;0.62;1.63;0.90;;;21.40;24.20;;;;;;2230650;62;20560;-65
2022/11/23 07:26:44;0.00;0.00;0.62;0.00;0.00;0.62;2.10;1.10;;;21.40;24.20;;;;;;2233304;62;20359;-63
2022/11/23 07:29:30;0.00;0.00;0.62;0.00;0.00;0.62;2.10;0.80;;;21.40;24.20;;;;;;2236220;62;20374;-58
2022/11/23 07:32:15;0.00;0.00;0.62;0.00;0.00;0.62;1.50;0.90;;;21.40;24.20;;;;;;2232969;62;20383;-62
2022/11/23 07:35:00;0.00;0.00;0.62;0.00;0.00;0.62;1.40;0.80;;;21.40;24.20;;;;;;2233143;62;20906;-63
2022/11/23 07:37:47;0.00;0.00;0.62;0.00;0.00;0.62;1.60;1.10;;;21.50;24.30;;;;;;2233059;62;20479;-61
2022/11/23 07:40:34;0.00;0.00;0.62;0.00;0.00;0.62;1.70;0.90;;;21.50;24.30;;;;;;2233259;62;20369;-64
2022/11/23 07:43:19;0.00;0.00;0.62;0.00;0.00;0.62;1.30;0.70;;;21.50;24.30;;;;;;2236955;62;20366;-62
2022/11/23 07:46:08;0.00;0.00;0.62;0.00;0.00;0.62;1.67;0.80;;;21.50;24.30;;;;;;2233956;62;20963;-62
2022/11/23 07:49:00;0.00;0.00;0.62;0.00;0.00;0.62;1.90;0.90;;;21.50;24.30;;;;;;2236790;62;20843;-63
2022/11/23 07:51:45;0.00;0.00;0.62;0.00;0.00;0.62;1.77;0.80;;;21.50;24.40;;;;;;2236222;62;20995;-62
2022/11/23 07:54:29;0.00;0.00;0.62;0.00;0.00;0.62;2.10;0.90;;;21.50;24.40;;;;;;2236422;62;20366;-64
2022/11/23 07:57:14;0.00;0.00;0.62;0.00;0.00;0.62;1.53;0.90;;;21.60;24.40;;;;;;2236605;62;20924;-62
2022/11/23 07:59:59;0.00;0.00;0.62;0.00;0.00;0.62;2.23;0.80;;;21.60;24.40;;;;;;2236318;62;20367;-62
2022/11/23 08:02:46;0.00;0.00;0.62;0.00;0.00;0.62;2.60;0.90;;;21.60;24.40;;;;;;2236710;62;20435;-64
2022/11/23 08:05:32;0.00;0.00;0.62;0.00;0.00;0.62;2.13;0.93;;;21.60;24.40;;;;;;2236251;62;20410;-63
2022/11/23 08:08:17;0.00;0.00;0.62;0.00;0.00;0.62;1.30;0.70;;;21.60;24.40;;;;;;2236388;62;20354;-63
2022/11/23 08:11:03;0.00;0.00;0.62;0.00;0.00;0.62;1.60;0.90;;;21.60;24.40;;;;;;2236433;62;20526;-61
2022/11/23 08:13:49;0.00;0.00;0.62;0.00;0.00;0.62;1.70;0.90;;;21.60;24.40;;;;;;2236085;62;20383;-64
2022/11/23 08:16:33;0.00;0.00;0.62;0.00;0.00;0.62;2.50;1.33;;;21.70;24.50;;;;;;2236515;62;20395;-62
2022/11/23 08:19:20;0.00;0.00;0.62;0.00;0.00;0.62;2.20;0.80;;;21.70;24.50;;;;;;2236383;62;20418;-62
2022/11/23 08:22:05;0.00;0.00;0.62;0.00;0.00;0.62;1.47;0.90;;;21.70;24.50;;;;;;2232996;62;20382;-60
2022/11/23 08:24:52;0.00;0.00;0.62;0.00;0.00;0.62;1.50;0.90;;;21.70;24.50;;;;;;2236734;62;20370;-64
2022/11/23 08:27:38;0.00;0.00;0.62;0.00;0.00;0.62;1.70;0.90;;;21.70;24.50;;;;;;2236668;62;20371;-62
2022/11/23 08:30:23;0.00;0.00;0.62;0.00;0.00;0.62;1.50;0.80;;;21.70;24.50;;;;;;2236145;62;20444;-62
2022/11/23 08:33:09;0.00;0.00;0.62;0.00;0.00;0.62;1.30;0.70;;;21.70;24.40;;;;;;2236624;62;20439;-62
2022/11/23 08:35:55;0.00;0.00;0.62;0.00;0.00;0.62;1.40;0.70;;;21.70;24.50;;;;;;2235867;62;20487;-62
2022/11/23 08:38:41;0.00;0.00;0.62;0.00;0.00;0.62;1.67;0.80;;;21.70;24.40;;;;;;2235730;62;20802;-62
2022/11/23 08:41:29;0.00;0.00;0.62;0.00;0.00;0.62;1.43;0.70;;;21.70;24.40;;;;;;2234009;61;21059;-61
2022/11/23 08:44:16;0.00;0.00;0.62;0.00;0.00;0.62;1.67;0.90;;;21.80;24.50;;;;;;2233728;61;20885;-61
2022/11/23 08:47:00;0.00;0.00;0.62;0.00;0.00;0.62;2.90;0.90;;;21.80;24.50;;;;;;2240231;61;20394;-63
2022/11/23 08:49:45;0.00;0.00;0.62;0.00;0.00;0.62;1.40;0.70;;;21.80;24.50;;;;;;2235867;61;20779;-62
2022/11/23 08:52:31;0.00;0.00;0.62;0.00;0.00;0.62;1.50;0.80;;;21.80;25.00;;;;;;2249624;61;20834;-62
2022/11/23 08:55:16;0.00;0.00;0.62;0.00;0.00;0.62;1.50;0.80;;;21.80;24.50;;;;;;2240020;61;20906;-61
2022/11/23 08:58:02;0.00;0.00;0.62;0.00;0.00;0.62;1.40;0.70;;;21.80;24.40;;;;;;2239961;61;20823;-64
2022/11/23 09:00:49;0.00;0.00;0.62;0.00;0.00;0.62;1.57;0.83;;;21.80;24.40;;;;;;2237403;61;20388;-63
2022/11/23 09:03:35;0.00;0.00;0.62;0.00;0.00;0.62;1.67;0.80;;;21.80;24.40;;;;;;2234141;61;20365;-65
2022/11/23 09:06:28;0.00;0.00;0.62;0.00;0.00;0.62;1.40;0.80;;;21.80;24.40;;;;;;2237157;61;20890;-61
2022/11/23 09:09:14;0.00;0.00;0.62;0.00;0.00;0.62;2.33;1.07;;;21.90;24.50;;;;;;2244536;61;20377;-61
2022/11/23 09:11:59;0.00;0.00;0.62;0.00;0.00;0.62;1.70;0.80;;;21.90;24.50;;;;;;2346438;53;20958;-61
2022/11/23 09:14:44;0.00;0.00;0.62;0.00;0.00;0.62;1.60;0.90;;;21.90;24.50;;;;;;2240333;61;20770;-62
2022/11/23 09:17:32;0.00;0.00;0.62;0.00;0.00;0.62;1.30;0.70;;;21.90;24.50;;;;;;2240540;61;20767;-62
2022/11/23 09:20:20;0.00;0.00;0.62;0.00;0.00;0.62;1.80;0.80;;;21.90;24.50;;;;;;2235209;62;20374;-64
2022/11/23 09:23:05;0.00;0.00;0.62;0.00;0.00;0.62;1.50;0.80;;;21.90;24.40;;;;;;2230392;62;20390;-61
2022/11/23 09:25:52;0.00;0.00;0.62;0.00;0.00;0.62;1.60;0.90;;;21.90;24.50;;;;;;2236175;62;20386;-66
2022/11/23 09:28:36;0.00;0.00;0.62;0.00;0.00;0.62;1.57;0.90;;;22.00;24.50;;;;;;2236137;62;20814;-66
2022/11/23 09:31:22;0.00;0.00;0.62;0.00;0.00;0.62;1.60;0.93;;;21.90;24.40;;;;;;2236301;61;20390;-61
2022/11/23 09:34:09;0.00;0.00;0.62;0.00;0.00;0.62;1.83;0.90;;;22.00;24.50;;;;;;2235911;62;20899;-64
2022/11/23 09:36:56;0.00;0.00;0.62;0.00;0.00;0.62;1.87;0.80;;;22.00;24.50;;;;;;2235895;61;20418;-63
2022/11/23 09:39:41;0.00;0.00;0.62;0.00;0.00;0.62;1.60;0.80;;;22.00;24.50;;;;;;2263564;58;20369;-65
2022/11/23 09:43:06;0.00;0.00;0.62;0.00;0.00;0.62;1.70;0.80;;;22.00;24.50;;;;;;2239791;61;20441;-62
2022/11/23 09:45:55;0.00;0.00;0.62;0.00;0.00;0.62;1.30;0.80;;;22.00;24.50;;;;;;2237090;61;20461;-66
2022/11/23 09:49:06;0.00;0.00;0.62;0.00;0.00;0.62;1.63;0.90;;;22.00;24.50;;;;;;2240024;61;20767;-64
2022/11/23 09:51:55;0.00;0.00;0.62;0.00;0.00;0.62;1.40;0.80;;;22.00;24.50;;;;;;2240215;61;20385;-63
2022/11/23 09:54:44;0.00;0.00;0.62;0.00;0.00;0.62;1.50;0.80;;;22.00;24.50;;;;;;2240250;61;20421;-63
2022/11/23 09:57:32;0.00;0.00;0.62;0.00;0.00;0.62;1.47;0.73;;;22.00;24.50;;;;;;2239668;61;20498;-61
2022/11/23 10:00:21;0.00;0.00;0.62;0.00;0.00;0.62;1.40;0.70;;;22.00;24.50;;;;;;2240190;61;20389;-64
2022/11/23 10:03:12;0.00;0.00;0.62;0.00;0.00;0.62;1.53;0.80;;;22.10;24.60;;;;;;2239904;61;20392;-67
2022/11/23 10:06:05;0.00;0.00;0.62;0.00;0.00;0.62;2.00;1.10;;;22.00;24.50;;;;;;2262176;61;20405;-64
2022/11/23 10:09:05;0.00;0.00;0.62;0.00;0.00;0.62;1.50;0.80;;;22.10;24.50;;;;;;2240380;61;20478;-64
2022/11/23 10:12:22;0.00;0.00;0.62;0.00;0.00;0.62;2.40;0.97;;;22.10;24.60;;;;;;2239417;61;20381;-60
2022/11/23 10:15:14;0.00;0.00;0.62;0.00;0.00;0.62;1.70;0.90;;;22.10;24.60;;;;;;2237329;61;20362;-63
2022/11/23 10:18:22;0.00;0.00;0.62;0.00;0.00;0.62;1.60;0.70;;;22.10;24.60;;;;;;2239794;61;20358;-61
2022/11/23 10:21:20;0.00;0.00;0.62;0.00;0.00;0.62;1.40;0.70;;;22.10;24.60;;;;;;2239710;61;20409;-62
2022/11/23 10:24:18;0.00;0.00;0.62;0.00;0.00;0.62;1.60;0.80;;;22.20;24.70;;;;;;2240502;61;20361;-63
2022/11/23 10:27:12;0.00;0.00;0.62;0.00;0.00;0.62;1.60;0.80;;;22.10;24.60;;;;;;2239306;61;20393;-61
2022/11/23 10:29:58;0.00;0.00;0.62;0.00;0.00;0.62;1.40;0.80;;;22.20;24.70;;;;;;2240223;61;20393;-64
2022/11/23 10:32:47;0.00;0.00;0.62;0.00;0.00;0.62;1.50;0.70;;;22.20;24.70;;;;;;2239614;61;20377;-61
2022/11/23 10:35:36;0.00;0.00;0.62;0.00;0.00;0.62;1.50;0.73;;;22.20;24.60;;;;;;2239908;61;20393;-67
2022/11/23 10:38:26;0.00;0.00;0.62;0.00;0.00;0.62;1.60;0.90;;;22.20;24.60;;;;;;2240202;61;20420;-63
2022/11/23 10:41:12;0.00;0.00;0.62;0.00;0.00;0.62;1.40;0.70;;;22.20;24.70;;;;;;2239042;61;20385;-64
2022/11/23 10:44:11;0.00;0.00;0.62;0.00;0.00;0.62;1.40;0.83;;;22.30;24.60;;;;;;2240319;61;20369;-61
2022/11/23 10:46:56;0.00;0.00;0.62;0.00;0.00;0.62;2.00;0.90;;;22.20;24.60;;;;;;2239897;61;20418;-59
2022/11/23 10:49:57;0.00;0.00;0.62;0.00;0.00;0.62;1.50;0.90;;;22.30;24.60;;;;;;2239302;61;20412;-63
2022/11/23 10:52:50;0.00;0.00;0.62;0.00;0.00;0.62;1.40;0.80;;;22.30;24.60;;;;;;2240318;61;20475;-64
2022/11/23 10:55:49;0.00;0.00;0.62;0.00;0.00;0.62;1.40;0.70;;;22.30;24.60;;;;;;2239482;61;20401;-59
2022/11/23 10:58:44;0.00;0.00;0.62;0.00;0.00;0.62;1.97;1.50;;;22.30;24.60;;;;;;2237295;61;20378;-62
2022/11/23 11:01:29;0.00;0.00;0.62;0.00;0.00;0.62;1.90;0.90;;;22.30;24.60;;;;;;2239701;61;20492;-65
2022/11/23 11:04:24;0.00;0.00;0.62;0.00;0.00;0.62;1.50;0.80;;;22.30;24.60;;;;;;2237746;61;20736;-62